Terminal Aerodrome Forecast
Issued by NWS

Home | Current Version | Previous Version | Text Only | Print | Product List | Glossary On
Versions: 1 2 3 4 5 6 7 8 9 10 11 12
000
FTUS46 KSEW 271724
TAFPAE
TAF
KPAE 271724Z 2718/2818 19012KT P6SM OVC015
     FM272000 20010KT P6SM BKN022
     FM272100 24008KT P6SM SCT030 SCT100
     FM280000 36005KT P6SM SCT030 SCT100
     FM280700 17005KT P6SM OVC012=

USA.gov is the U.S. government's official web portal to all federal, state and local government web resources and services.